sensor_id;sensor_type;location;lat;lon;timestamp;P1;durP1;ratioP1;P2;durP2;ratioP2
56997;SDS011;42890;44.244;22.530;2023-05-07T00:01:00;11.10;;;9.98;;
56997;SDS011;42890;44.244;22.530;2023-05-07T00:03:27;10.85;;;9.75;;
56997;SDS011;42890;44.244;22.530;2023-05-07T00:05:54;10.75;;;9.65;;
56997;SDS011;42890;44.244;22.530;2023-05-07T00:08:20;12.02;;;8.55;;
56997;SDS011;42890;44.244;22.530;2023-05-07T00:10:46;10.07;;;9.18;;
56997;SDS011;42890;44.244;22.530;2023-05-07T00:13:12;10.30;;;9.40;;
56997;SDS011;42890;44.244;22.530;2023-05-07T00:15:39;10.82;;;9.82;;
56997;SDS011;42890;44.244;22.530;2023-05-07T00:18:05;10.80;;;9.75;;
56997;SDS011;42890;44.244;22.530;2023-05-07T00:20:31;11.13;;;9.88;;
56997;SDS011;42890;44.244;22.530;2023-05-07T00:22:58;10.98;;;9.95;;
56997;SDS011;42890;44.244;22.530;2023-05-07T00:25:24;10.98;;;10.02;;
56997;SDS011;42890;44.244;22.530;2023-05-07T00:27:50;11.55;;;9.60;;
56997;SDS011;42890;44.244;22.530;2023-05-07T00:30:16;12.20;;;9.38;;
56997;SDS011;42890;44.244;22.530;2023-05-07T00:32:42;9.57;;;8.77;;
56997;SDS011;42890;44.244;22.530;2023-05-07T00:35:10;9.75;;;8.85;;
56997;SDS011;42890;44.244;22.530;2023-05-07T00:37:36;11.00;;;9.00;;
56997;SDS011;42890;44.244;22.530;2023-05-07T00:40:02;10.85;;;8.52;;
56997;SDS011;42890;44.244;22.530;2023-05-07T00:42:32;10.10;;;9.02;;
56997;SDS011;42890;44.244;22.530;2023-05-07T00:44:58;10.93;;;9.60;;
56997;SDS011;42890;44.244;22.530;2023-05-07T00:47:24;10.55;;;9.45;;
56997;SDS011;42890;44.244;22.530;2023-05-07T00:49:51;10.10;;;9.20;;
56997;SDS011;42890;44.244;22.530;2023-05-07T00:52:17;14.70;;;8.73;;
56997;SDS011;42890;44.244;22.530;2023-05-07T00:54:45;10.38;;;8.50;;
56997;SDS011;42890;44.244;22.530;2023-05-07T00:57:11;10.35;;;8.13;;
56997;SDS011;42890;44.244;22.530;2023-05-07T00:59:38;10.25;;;9.35;;
56997;SDS011;42890;44.244;22.530;2023-05-07T01:02:07;10.38;;;9.48;;
56997;SDS011;42890;44.244;22.530;2023-05-07T01:04:33;9.40;;;8.52;;
56997;SDS011;42890;44.244;22.530;2023-05-07T01:07:00;10.57;;;9.38;;
56997;SDS011;42890;44.244;22.530;2023-05-07T01:09:27;9.30;;;8.45;;
56997;SDS011;42890;44.244;22.530;2023-05-07T01:11:54;11.70;;;9.40;;
56997;SDS011;42890;44.244;22.530;2023-05-07T01:14:22;10.77;;;9.50;;
56997;SDS011;42890;44.244;22.530;2023-05-07T01:16:49;13.57;;;8.98;;
56997;SDS011;42890;44.244;22.530;2023-05-07T01:19:17;10.90;;;8.88;;
56997;SDS011;42890;44.244;22.530;2023-05-07T01:21:44;12.90;;;9.38;;
56997;SDS011;42890;44.244;22.530;2023-05-07T01:24:12;9.45;;;8.55;;
56997;SDS011;42890;44.244;22.530;2023-05-07T01:26:38;15.85;;;8.75;;
56997;SDS011;42890;44.244;22.530;2023-05-07T01:29:05;12.65;;;8.60;;
56997;SDS011;42890;44.244;22.530;2023-05-07T01:31:32;12.77;;;8.40;;
56997;SDS011;42890;44.244;22.530;2023-05-07T01:33:58;11.93;;;8.40;;
56997;SDS011;42890;44.244;22.530;2023-05-07T01:36:25;8.77;;;7.90;;
56997;SDS011;42890;44.244;22.530;2023-05-07T01:38:52;11.27;;;8.85;;
56997;SDS011;42890;44.244;22.530;2023-05-07T01:41:19;12.65;;;8.02;;
56997;SDS011;42890;44.244;22.530;2023-05-07T01:43:45;9.07;;;8.18;;
56997;SDS011;42890;44.244;22.530;2023-05-07T01:46:12;9.20;;;8.30;;
56997;SDS011;42890;44.244;22.530;2023-05-07T01:48:38;11.60;;;8.95;;
56997;SDS011;42890;44.244;22.530;2023-05-07T01:51:05;9.68;;;8.52;;
56997;SDS011;42890;44.244;22.530;2023-05-07T01:53:38;9.98;;;8.23;;
56997;SDS011;42890;44.244;22.530;2023-05-07T01:56:04;12.63;;;8.48;;
56997;SDS011;42890;44.244;22.530;2023-05-07T01:58:31;8.48;;;7.60;;
56997;SDS011;42890;44.244;22.530;2023-05-07T02:00:57;8.90;;;8.10;;
56997;SDS011;42890;44.244;22.530;2023-05-07T02:03:23;8.43;;;7.72;;
56997;SDS011;42890;44.244;22.530;2023-05-07T02:05:49;10.52;;;8.27;;
56997;SDS011;42890;44.244;22.530;2023-05-07T02:08:15;9.07;;;7.45;;
56997;SDS011;42890;44.244;22.530;2023-05-07T02:10:41;8.00;;;7.30;;
56997;SDS011;42890;44.244;22.530;2023-05-07T02:13:07;8.82;;;7.18;;
56997;SDS011;42890;44.244;22.530;2023-05-07T02:15:33;7.88;;;7.07;;
56997;SDS011;42890;44.244;22.530;2023-05-07T02:18:04;8.00;;;7.20;;
56997;SDS011;42890;44.244;22.530;2023-05-07T02:20:31;8.98;;;6.57;;
56997;SDS011;42890;44.244;22.530;2023-05-07T02:22:57;7.53;;;6.82;;
56997;SDS011;42890;44.244;22.530;2023-05-07T02:25:23;7.70;;;6.90;;
56997;SDS011;42890;44.244;22.530;2023-05-07T02:27:50;8.10;;;7.00;;
56997;SDS011;42890;44.244;22.530;2023-05-07T02:30:16;7.85;;;7.15;;
56997;SDS011;42890;44.244;22.530;2023-05-07T02:32:42;7.35;;;6.68;;
56997;SDS011;42890;44.244;22.530;2023-05-07T02:35:08;9.73;;;7.03;;
56997;SDS011;42890;44.244;22.530;2023-05-07T02:37:35;10.68;;;6.68;;
56997;SDS011;42890;44.244;22.530;2023-05-07T02:40:01;7.57;;;6.82;;
56997;SDS011;42890;44.244;22.530;2023-05-07T02:42:28;8.70;;;6.90;;
56997;SDS011;42890;44.244;22.530;2023-05-07T02:44:55;7.47;;;6.75;;
56997;SDS011;42890;44.244;22.530;2023-05-07T02:47:21;6.78;;;5.95;;
56997;SDS011;42890;44.244;22.530;2023-05-07T02:49:47;7.00;;;6.40;;
56997;SDS011;42890;44.244;22.530;2023-05-07T02:52:13;7.80;;;6.50;;
56997;SDS011;42890;44.244;22.530;2023-05-07T02:54:39;7.72;;;6.43;;
56997;SDS011;42890;44.244;22.530;2023-05-07T02:57:05;6.68;;;6.05;;
56997;SDS011;42890;44.244;22.530;2023-05-07T02:59:32;9.48;;;7.22;;
56997;SDS011;42890;44.244;22.530;2023-05-07T03:01:58;7.43;;;6.80;;
56997;SDS011;42890;44.244;22.530;2023-05-07T03:04:24;8.00;;;6.57;;
56997;SDS011;42890;44.244;22.530;2023-05-07T03:06:50;8.05;;;6.20;;
56997;SDS011;42890;44.244;22.530;2023-05-07T03:09:16;12.38;;;7.43;;
56997;SDS011;42890;44.244;22.530;2023-05-07T03:11:42;8.98;;;6.82;;
56997;SDS011;42890;44.244;22.530;2023-05-07T03:14:09;7.93;;;6.32;;
56997;SDS011;42890;44.244;22.530;2023-05-07T03:16:35;8.70;;;6.13;;
56997;SDS011;42890;44.244;22.530;2023-05-07T03:19:01;7.03;;;6.03;;
56997;SDS011;42890;44.244;22.530;2023-05-07T03:21:27;6.70;;;6.10;;
56997;SDS011;42890;44.244;22.530;2023-05-07T03:23:53;8.15;;;6.57;;
56997;SDS011;42890;44.244;22.530;2023-05-07T03:26:20;7.40;;;6.53;;
56997;SDS011;42890;44.244;22.530;2023-05-07T03:28:46;8.55;;;6.70;;
56997;SDS011;42890;44.244;22.530;2023-05-07T03:31:12;8.82;;;6.78;;
56997;SDS011;42890;44.244;22.530;2023-05-07T03:33:42;8.38;;;6.40;;
56997;SDS011;42890;44.244;22.530;2023-05-07T03:36:14;7.20;;;6.28;;
56997;SDS011;42890;44.244;22.530;2023-05-07T03:38:41;9.57;;;6.70;;
56997;SDS011;42890;44.244;22.530;2023-05-07T03:41:07;6.47;;;5.97;;
56997;SDS011;42890;44.244;22.530;2023-05-07T03:43:33;8.75;;;6.50;;
56997;SDS011;42890;44.244;22.530;2023-05-07T03:45:59;10.98;;;6.40;;
56997;SDS011;42890;44.244;22.530;2023-05-07T03:48:25;7.45;;;5.75;;
56997;SDS011;42890;44.244;22.530;2023-05-07T03:50:51;7.57;;;6.40;;
56997;SDS011;42890;44.244;22.530;2023-05-07T03:53:17;6.43;;;5.45;;
56997;SDS011;42890;44.244;22.530;2023-05-07T03:55:44;7.65;;;6.38;;
56997;SDS011;42890;44.244;22.530;2023-05-07T03:58:10;6.47;;;5.70;;
56997;SDS011;42890;44.244;22.530;2023-05-07T04:00:36;8.90;;;6.55;;
56997;SDS011;42890;44.244;22.530;2023-05-07T04:03:04;11.18;;;5.93;;
56997;SDS011;42890;44.244;22.530;2023-05-07T04:05:30;8.07;;;6.75;;
56997;SDS011;42890;44.244;22.530;2023-05-07T04:08:00;7.50;;;5.88;;
56997;SDS011;42890;44.244;22.530;2023-05-07T04:10:27;11.27;;;6.22;;
56997;SDS011;42890;44.244;22.530;2023-05-07T04:12:53;7.18;;;6.32;;
56997;SDS011;42890;44.244;22.530;2023-05-07T04:15:19;8.60;;;7.80;;
56997;SDS011;42890;44.244;22.530;2023-05-07T04:17:45;11.98;;;8.98;;
56997;SDS011;42890;44.244;22.530;2023-05-07T04:20:15;10.18;;;9.05;;
56997;SDS011;42890;44.244;22.530;2023-05-07T04:22:42;9.02;;;8.13;;
56997;SDS011;42890;44.244;22.530;2023-05-07T04:25:09;9.82;;;8.20;;
56997;SDS011;42890;44.244;22.530;2023-05-07T04:27:35;11.18;;;9.13;;
56997;SDS011;42890;44.244;22.530;2023-05-07T04:30:02;10.07;;;7.95;;
56997;SDS011;42890;44.244;22.530;2023-05-07T04:32:28;9.57;;;8.43;;
56997;SDS011;42890;44.244;22.530;2023-05-07T04:34:57;11.18;;;8.63;;
56997;SDS011;42890;44.244;22.530;2023-05-07T04:37:23;12.30;;;9.52;;
56997;SDS011;42890;44.244;22.530;2023-05-07T04:39:49;20.98;;;9.23;;
56997;SDS011;42890;44.244;22.530;2023-05-07T04:42:16;17.00;;;8.00;;
56997;SDS011;42890;44.244;22.530;2023-05-07T04:44:43;10.57;;;7.63;;
56997;SDS011;42890;44.244;22.530;2023-05-07T04:47:09;10.07;;;7.65;;
56997;SDS011;42890;44.244;22.530;2023-05-07T04:49:36;11.05;;;7.65;;
56997;SDS011;42890;44.244;22.530;2023-05-07T04:52:02;8.52;;;7.57;;
56997;SDS011;42890;44.244;22.530;2023-05-07T04:54:28;8.15;;;7.38;;
56997;SDS011;42890;44.244;22.530;2023-05-07T04:56:55;9.63;;;8.07;;
56997;SDS011;42890;44.244;22.530;2023-05-07T04:59:21;13.43;;;8.90;;
56997;SDS011;42890;44.244;22.530;2023-05-07T05:01:47;10.82;;;8.35;;
56997;SDS011;42890;44.244;22.530;2023-05-07T05:04:13;11.85;;;7.88;;
56997;SDS011;42890;44.244;22.530;2023-05-07T05:06:39;11.10;;;7.68;;
56997;SDS011;42890;44.244;22.530;2023-05-07T05:09:05;10.52;;;7.72;;
56997;SDS011;42890;44.244;22.530;2023-05-07T05:11:32;8.60;;;6.85;;
56997;SDS011;42890;44.244;22.530;2023-05-07T05:13:59;9.00;;;7.30;;
56997;SDS011;42890;44.244;22.530;2023-05-07T05:16:25;7.47;;;6.78;;
56997;SDS011;42890;44.244;22.530;2023-05-07T05:18:51;7.88;;;6.13;;
56997;SDS011;42890;44.244;22.530;2023-05-07T05:21:19;6.82;;;6.20;;
56997;SDS011;42890;44.244;22.530;2023-05-07T05:23:45;7.40;;;6.70;;
56997;SDS011;42890;44.244;22.530;2023-05-07T05:26:12;7.00;;;6.32;;
56997;SDS011;42890;44.244;22.530;2023-05-07T05:28:38;8.98;;;6.63;;
56997;SDS011;42890;44.244;22.530;2023-05-07T05:31:04;7.50;;;6.05;;
56997;SDS011;42890;44.244;22.530;2023-05-07T05:33:31;15.13;;;6.75;;
56997;SDS011;42890;44.244;22.530;2023-05-07T05:35:57;8.90;;;5.93;;
56997;SDS011;42890;44.244;22.530;2023-05-07T05:38:23;6.70;;;5.72;;
56997;SDS011;42890;44.244;22.530;2023-05-07T05:40:49;10.50;;;5.75;;
56997;SDS011;42890;44.244;22.530;2023-05-07T05:43:15;10.23;;;5.38;;
56997;SDS011;42890;44.244;22.530;2023-05-07T05:45:41;6.10;;;5.50;;
56997;SDS011;42890;44.244;22.530;2023-05-07T05:48:07;7.22;;;5.85;;
56997;SDS011;42890;44.244;22.530;2023-05-07T05:50:34;6.25;;;5.75;;
56997;SDS011;42890;44.244;22.530;2023-05-07T05:53:03;7.28;;;6.57;;
56997;SDS011;42890;44.244;22.530;2023-05-07T05:55:29;7.88;;;7.00;;
56997;SDS011;42890;44.244;22.530;2023-05-07T05:57:57;7.22;;;6.57;;
56997;SDS011;42890;44.244;22.530;2023-05-07T06:00:23;8.20;;;6.75;;
56997;SDS011;42890;44.244;22.530;2023-05-07T06:02:50;10.13;;;6.35;;
56997;SDS011;42890;44.244;22.530;2023-05-07T06:05:16;6.97;;;6.25;;
56997;SDS011;42890;44.244;22.530;2023-05-07T06:07:43;8.00;;;6.85;;
56997;SDS011;42890;44.244;22.530;2023-05-07T06:10:09;6.90;;;6.03;;
56997;SDS011;42890;44.244;22.530;2023-05-07T06:12:35;6.80;;;6.20;;
56997;SDS011;42890;44.244;22.530;2023-05-07T06:15:01;9.98;;;6.03;;
56997;SDS011;42890;44.244;22.530;2023-05-07T06:17:27;7.05;;;5.85;;
56997;SDS011;42890;44.244;22.530;2023-05-07T06:19:53;10.85;;;6.20;;
56997;SDS011;42890;44.244;22.530;2023-05-07T06:22:20;12.25;;;5.60;;
56997;SDS011;42890;44.244;22.530;2023-05-07T06:24:46;9.05;;;6.13;;
56997;SDS011;42890;44.244;22.530;2023-05-07T06:27:12;7.88;;;5.97;;
56997;SDS011;42890;44.244;22.530;2023-05-07T06:29:39;7.13;;;5.93;;
56997;SDS011;42890;44.244;22.530;2023-05-07T06:32:12;8.40;;;6.13;;
56997;SDS011;42890;44.244;22.530;2023-05-07T06:34:38;12.13;;;6.28;;
56997;SDS011;42890;44.244;22.530;2023-05-07T06:37:05;11.25;;;6.20;;
56997;SDS011;42890;44.244;22.530;2023-05-07T06:39:31;9.35;;;5.60;;
56997;SDS011;42890;44.244;22.530;2023-05-07T06:41:57;8.77;;;5.75;;
56997;SDS011;42890;44.244;22.530;2023-05-07T06:44:24;6.55;;;5.25;;
56997;SDS011;42890;44.244;22.530;2023-05-07T06:46:50;7.65;;;6.07;;
56997;SDS011;42890;44.244;22.530;2023-05-07T06:49:16;7.00;;;6.38;;
56997;SDS011;42890;44.244;22.530;2023-05-07T06:51:42;8.38;;;5.70;;
56997;SDS011;42890;44.244;22.530;2023-05-07T06:54:08;13.02;;;5.57;;
56997;SDS011;42890;44.244;22.530;2023-05-07T06:56:34;10.25;;;6.57;;
56997;SDS011;42890;44.244;22.530;2023-05-07T06:59:01;9.27;;;5.60;;
56997;SDS011;42890;44.244;22.530;2023-05-07T07:01:28;8.98;;;5.97;;
56997;SDS011;42890;44.244;22.530;2023-05-07T07:03:54;12.48;;;6.00;;
56997;SDS011;42890;44.244;22.530;2023-05-07T07:06:20;6.30;;;5.10;;
56997;SDS011;42890;44.244;22.530;2023-05-07T07:08:46;7.95;;;5.32;;
56997;SDS011;42890;44.244;22.530;2023-05-07T07:11:12;10.13;;;5.57;;
56997;SDS011;42890;44.244;22.530;2023-05-07T07:13:38;11.90;;;5.18;;
56997;SDS011;42890;44.244;22.530;2023-05-07T07:16:05;8.02;;;5.18;;
56997;SDS011;42890;44.244;22.530;2023-05-07T07:18:31;10.48;;;5.57;;
56997;SDS011;42890;44.244;22.530;2023-05-07T07:20:57;10.55;;;4.97;;
56997;SDS011;42890;44.244;22.530;2023-05-07T07:23:24;6.18;;;5.57;;
56997;SDS011;42890;44.244;22.530;2023-05-07T07:25:50;8.20;;;5.57;;
56997;SDS011;42890;44.244;22.530;2023-05-07T07:28:16;8.43;;;5.78;;
56997;SDS011;42890;44.244;22.530;2023-05-07T07:30:43;6.90;;;5.15;;
56997;SDS011;42890;44.244;22.530;2023-05-07T07:33:09;8.13;;;5.40;;
56997;SDS011;42890;44.244;22.530;2023-05-07T07:35:35;9.35;;;5.53;;
56997;SDS011;42890;44.244;22.530;2023-05-07T07:38:01;6.65;;;5.10;;
56997;SDS011;42890;44.244;22.530;2023-05-07T07:40:27;8.05;;;5.40;;
56997;SDS011;42890;44.244;22.530;2023-05-07T07:42:54;5.90;;;5.30;;
56997;SDS011;42890;44.244;22.530;2023-05-07T07:45:20;5.93;;;5.35;;
56997;SDS011;42890;44.244;22.530;2023-05-07T07:47:46;10.93;;;5.35;;
56997;SDS011;42890;44.244;22.530;2023-05-07T07:50:12;6.72;;;5.30;;
56997;SDS011;42890;44.244;22.530;2023-05-07T07:52:38;6.78;;;5.65;;
56997;SDS011;42890;44.244;22.530;2023-05-07T07:55:06;6.97;;;5.72;;
56997;SDS011;42890;44.244;22.530;2023-05-07T07:57:32;10.05;;;5.57;;
56997;SDS011;42890;44.244;22.530;2023-05-07T07:59:58;7.95;;;5.07;;
56997;SDS011;42890;44.244;22.530;2023-05-07T08:02:25;10.45;;;5.65;;
56997;SDS011;42890;44.244;22.530;2023-05-07T08:04:52;11.13;;;4.75;;
56997;SDS011;42890;44.244;22.530;2023-05-07T08:07:18;8.57;;;5.35;;
56997;SDS011;42890;44.244;22.530;2023-05-07T08:09:45;8.63;;;5.75;;
56997;SDS011;42890;44.244;22.530;2023-05-07T08:12:12;7.90;;;5.50;;
56997;SDS011;42890;44.244;22.530;2023-05-07T08:14:38;8.20;;;5.35;;
56997;SDS011;42890;44.244;22.530;2023-05-07T08:17:04;5.70;;;4.85;;
56997;SDS011;42890;44.244;22.530;2023-05-07T08:19:30;9.70;;;5.15;;
56997;SDS011;42890;44.244;22.530;2023-05-07T08:21:56;8.82;;;5.70;;
56997;SDS011;42890;44.244;22.530;2023-05-07T08:24:22;6.97;;;5.03;;
56997;SDS011;42890;44.244;22.530;2023-05-07T08:26:49;9.07;;;4.97;;
56997;SDS011;42890;44.244;22.530;2023-05-07T08:29:15;6.00;;;4.75;;
56997;SDS011;42890;44.244;22.530;2023-05-07T08:31:41;9.95;;;4.80;;
56997;SDS011;42890;44.244;22.530;2023-05-07T08:34:07;11.20;;;5.32;;
56997;SDS011;42890;44.244;22.530;2023-05-07T08:36:33;8.40;;;5.20;;
56997;SDS011;42890;44.244;22.530;2023-05-07T08:38:59;8.40;;;5.10;;
56997;SDS011;42890;44.244;22.530;2023-05-07T08:41:26;5.40;;;4.80;;
56997;SDS011;42890;44.244;22.530;2023-05-07T08:43:52;7.68;;;5.97;;
56997;SDS011;42890;44.244;22.530;2023-05-07T08:46:20;9.90;;;5.40;;
56997;SDS011;42890;44.244;22.530;2023-05-07T08:48:49;6.22;;;5.40;;
56997;SDS011;42890;44.244;22.530;2023-05-07T08:51:17;8.10;;;5.03;;
56997;SDS011;42890;44.244;22.530;2023-05-07T08:53:44;8.02;;;4.97;;
56997;SDS011;42890;44.244;22.530;2023-05-07T08:56:10;10.15;;;5.25;;
56997;SDS011;42890;44.244;22.530;2023-05-07T08:58:37;7.03;;;5.05;;
56997;SDS011;42890;44.244;22.530;2023-05-07T09:01:05;8.68;;;5.13;;
56997;SDS011;42890;44.244;22.530;2023-05-07T09:03:32;9.32;;;4.80;;
56997;SDS011;42890;44.244;22.530;2023-05-07T09:05:59;9.57;;;4.40;;
56997;SDS011;42890;44.244;22.530;2023-05-07T09:08:26;6.65;;;5.18;;
56997;SDS011;42890;44.244;22.530;2023-05-07T09:10:52;6.20;;;4.60;;
56997;SDS011;42890;44.244;22.530;2023-05-07T09:13:19;5.68;;;4.90;;
56997;SDS011;42890;44.244;22.530;2023-05-07T09:15:45;9.27;;;4.80;;
56997;SDS011;42890;44.244;22.530;2023-05-07T09:18:12;13.57;;;4.82;;
56997;SDS011;42890;44.244;22.530;2023-05-07T09:20:39;7.25;;;4.80;;
56997;SDS011;42890;44.244;22.530;2023-05-07T09:23:06;8.07;;;5.22;;
56997;SDS011;42890;44.244;22.530;2023-05-07T09:25:33;9.27;;;4.82;;
56997;SDS011;42890;44.244;22.530;2023-05-07T09:28:02;17.90;;;5.05;;
56997;SDS011;42890;44.244;22.530;2023-05-07T09:30:29;5.85;;;4.68;;
56997;SDS011;42890;44.244;22.530;2023-05-07T09:32:55;7.90;;;4.75;;
56997;SDS011;42890;44.244;22.530;2023-05-07T09:35:22;8.93;;;5.05;;
56997;SDS011;42890;44.244;22.530;2023-05-07T09:37:52;5.75;;;4.70;;
56997;SDS011;42890;44.244;22.530;2023-05-07T09:40:20;8.30;;;4.68;;
56997;SDS011;42890;44.244;22.530;2023-05-07T09:42:47;6.20;;;4.65;;
56997;SDS011;42890;44.244;22.530;2023-05-07T09:45:14;5.88;;;4.57;;
56997;SDS011;42890;44.244;22.530;2023-05-07T09:47:40;13.50;;;4.65;;
56997;SDS011;42890;44.244;22.530;2023-05-07T09:50:12;10.15;;;4.47;;
56997;SDS011;42890;44.244;22.530;2023-05-07T09:52:38;8.10;;;4.72;;
56997;SDS011;42890;44.244;22.530;2023-05-07T09:55:05;12.88;;;4.55;;
56997;SDS011;42890;44.244;22.530;2023-05-07T09:57:33;7.43;;;4.28;;
56997;SDS011;42890;44.244;22.530;2023-05-07T10:00:00;5.28;;;4.03;;
56997;SDS011;42890;44.244;22.530;2023-05-07T10:02:29;9.55;;;4.10;;
56997;SDS011;42890;44.244;22.530;2023-05-07T10:04:56;8.20;;;4.45;;
56997;SDS011;42890;44.244;22.530;2023-05-07T10:07:25;6.82;;;4.13;;
56997;SDS011;42890;44.244;22.530;2023-05-07T10:09:52;9.75;;;3.92;;
56997;SDS011;42890;44.244;22.530;2023-05-07T10:12:19;10.13;;;4.20;;
56997;SDS011;42890;44.244;22.530;2023-05-07T10:14:45;6.22;;;3.85;;
56997;SDS011;42890;44.244;22.530;2023-05-07T10:17:14;5.25;;;3.90;;
56997;SDS011;42890;44.244;22.530;2023-05-07T10:19:44;8.77;;;4.35;;
56997;SDS011;42890;44.244;22.530;2023-05-07T10:22:11;7.47;;;4.20;;
56997;SDS011;42890;44.244;22.530;2023-05-07T10:24:39;8.25;;;3.63;;
56997;SDS011;42890;44.244;22.530;2023-05-07T10:27:09;4.20;;;3.80;;
56997;SDS011;42890;44.244;22.530;2023-05-07T10:29:45;7.70;;;3.60;;
56997;SDS011;42890;44.244;22.530;2023-05-07T10:34:59;7.20;;;4.15;;
56997;SDS011;42890;44.244;22.530;2023-05-07T10:37:26;5.38;;;3.53;;
56997;SDS011;42890;44.244;22.530;2023-05-07T10:39:52;9.50;;;3.40;;
56997;SDS011;42890;44.244;22.530;2023-05-07T10:42:18;5.43;;;3.70;;
56997;SDS011;42890;44.244;22.530;2023-05-07T10:44:44;10.27;;;3.63;;
56997;SDS011;42890;44.244;22.530;2023-05-07T10:47:11;4.03;;;3.42;;
56997;SDS011;42890;44.244;22.530;2023-05-07T10:52:23;6.50;;;3.03;;
56997;SDS011;42890;44.244;22.530;2023-05-07T10:57:36;10.35;;;3.70;;
56997;SDS011;42890;44.244;22.530;2023-05-07T11:00:03;4.38;;;3.22;;
56997;SDS011;42890;44.244;22.530;2023-05-07T11:05:20;10.00;;;3.13;;
56997;SDS011;42890;44.244;22.530;2023-05-07T11:08:02;6.45;;;3.40;;
56997;SDS011;42890;44.244;22.530;2023-05-07T11:10:47;3.90;;;3.13;;
56997;SDS011;42890;44.244;22.530;2023-05-07T11:13:14;4.57;;;3.03;;
56997;SDS011;42890;44.244;22.530;2023-05-07T11:18:10;4.40;;;3.10;;
56997;SDS011;42890;44.244;22.530;2023-05-07T11:26:08;11.65;;;3.10;;
56997;SDS011;42890;44.244;22.530;2023-05-07T11:28:40;8.80;;;3.05;;
56997;SDS011;42890;44.244;22.530;2023-05-07T11:31:07;4.10;;;3.30;;
56997;SDS011;42890;44.244;22.530;2023-05-07T11:33:34;8.93;;;3.00;;
56997;SDS011;42890;44.244;22.530;2023-05-07T11:36:01;6.75;;;2.97;;
56997;SDS011;42890;44.244;22.530;2023-05-07T11:38:28;5.93;;;3.20;;
56997;SDS011;42890;44.244;22.530;2023-05-07T11:40:55;3.58;;;2.75;;
56997;SDS011;42890;44.244;22.530;2023-05-07T11:43:21;4.40;;;3.05;;
56997;SDS011;42890;44.244;22.530;2023-05-07T11:45:48;7.55;;;3.10;;
56997;SDS011;42890;44.244;22.530;2023-05-07T11:48:14;11.43;;;3.20;;
56997;SDS011;42890;44.244;22.530;2023-05-07T11:50:53;5.88;;;3.10;;
56997;SDS011;42890;44.244;22.530;2023-05-07T11:53:19;4.38;;;2.95;;
56997;SDS011;42890;44.244;22.530;2023-05-07T11:55:46;6.25;;;2.92;;
56997;SDS011;42890;44.244;22.530;2023-05-07T11:58:12;6.47;;;2.97;;
56997;SDS011;42890;44.244;22.530;2023-05-07T12:00:38;3.13;;;2.40;;
56997;SDS011;42890;44.244;22.530;2023-05-07T12:03:05;7.15;;;2.63;;
56997;SDS011;42890;44.244;22.530;2023-05-07T12:05:32;7.55;;;2.80;;
56997;SDS011;42890;44.244;22.530;2023-05-07T12:07:59;9.13;;;2.90;;
56997;SDS011;42890;44.244;22.530;2023-05-07T12:10:25;86.68;;;4.40;;
56997;SDS011;42890;44.244;22.530;2023-05-07T12:12:51;12.10;;;3.40;;
56997;SDS011;42890;44.244;22.530;2023-05-07T12:15:17;5.88;;;2.72;;
56997;SDS011;42890;44.244;22.530;2023-05-07T12:17:48;6.60;;;3.03;;
56997;SDS011;42890;44.244;22.530;2023-05-07T12:20:15;6.00;;;2.85;;
56997;SDS011;42890;44.244;22.530;2023-05-07T12:22:42;9.18;;;2.90;;
56997;SDS011;42890;44.244;22.530;2023-05-07T12:25:08;5.43;;;2.65;;
56997;SDS011;42890;44.244;22.530;2023-05-07T12:27:36;8.23;;;2.95;;
56997;SDS011;42890;44.244;22.530;2023-05-07T12:30:03;8.98;;;3.00;;
56997;SDS011;42890;44.244;22.530;2023-05-07T12:32:29;5.25;;;3.10;;
56997;SDS011;42890;44.244;22.530;2023-05-07T12:35:01;5.33;;;2.43;;
56997;SDS011;42890;44.244;22.530;2023-05-07T12:37:27;7.25;;;3.17;;
56997;SDS011;42890;44.244;22.530;2023-05-07T12:40:14;5.47;;;2.50;;
56997;SDS011;42890;44.244;22.530;2023-05-07T12:42:40;7.90;;;2.65;;
56997;SDS011;42890;44.244;22.530;2023-05-07T12:45:08;6.45;;;2.80;;
56997;SDS011;42890;44.244;22.530;2023-05-07T12:47:34;4.32;;;3.28;;
56997;SDS011;42890;44.244;22.530;2023-05-07T12:50:02;5.28;;;2.53;;
56997;SDS011;42890;44.244;22.530;2023-05-07T12:52:28;5.65;;;2.60;;
56997;SDS011;42890;44.244;22.530;2023-05-07T12:54:55;4.10;;;2.50;;
56997;SDS011;42890;44.244;22.530;2023-05-07T12:57:21;4.20;;;2.80;;
56997;SDS011;42890;44.244;22.530;2023-05-07T12:59:47;3.45;;;2.47;;
56997;SDS011;42890;44.244;22.530;2023-05-07T13:02:13;5.25;;;2.90;;
56997;SDS011;42890;44.244;22.530;2023-05-07T13:04:40;5.18;;;2.60;;
56997;SDS011;42890;44.244;22.530;2023-05-07T13:07:06;4.75;;;2.40;;
56997;SDS011;42890;44.244;22.530;2023-05-07T13:09:32;3.97;;;2.38;;
56997;SDS011;42890;44.244;22.530;2023-05-07T13:11:58;6.95;;;2.50;;
56997;SDS011;42890;44.244;22.530;2023-05-07T13:14:26;8.50;;;2.80;;
56997;SDS011;42890;44.244;22.530;2023-05-07T13:16:52;2.83;;;2.42;;
56997;SDS011;42890;44.244;22.530;2023-05-07T13:19:18;5.15;;;2.30;;
56997;SDS011;42890;44.244;22.530;2023-05-07T13:21:44;4.55;;;2.53;;
56997;SDS011;42890;44.244;22.530;2023-05-07T13:24:10;6.65;;;2.65;;
56997;SDS011;42890;44.244;22.530;2023-05-07T13:26:36;4.25;;;2.40;;
56997;SDS011;42890;44.244;22.530;2023-05-07T13:29:03;4.43;;;2.35;;
56997;SDS011;42890;44.244;22.530;2023-05-07T13:31:29;3.83;;;2.53;;
56997;SDS011;42890;44.244;22.530;2023-05-07T13:33:55;5.85;;;2.63;;
56997;SDS011;42890;44.244;22.530;2023-05-07T13:36:21;10.45;;;2.67;;
56997;SDS011;42890;44.244;22.530;2023-05-07T13:38:47;2.80;;;2.25;;
56997;SDS011;42890;44.244;22.530;2023-05-07T13:41:13;5.75;;;2.40;;
56997;SDS011;42890;44.244;22.530;2023-05-07T13:43:39;4.68;;;2.90;;
56997;SDS011;42890;44.244;22.530;2023-05-07T13:46:05;3.03;;;2.53;;
56997;SDS011;42890;44.244;22.530;2023-05-07T13:48:32;4.82;;;2.83;;
56997;SDS011;42890;44.244;22.530;2023-05-07T13:50:58;4.30;;;2.47;;
56997;SDS011;42890;44.244;22.530;2023-05-07T13:53:24;4.90;;;2.38;;
56997;SDS011;42890;44.244;22.530;2023-05-07T13:55:50;4.20;;;2.47;;
56997;SDS011;42890;44.244;22.530;2023-05-07T13:58:17;3.00;;;2.40;;
56997;SDS011;42890;44.244;22.530;2023-05-07T14:00:43;3.40;;;2.40;;
56997;SDS011;42890;44.244;22.530;2023-05-07T14:03:09;5.15;;;2.67;;
56997;SDS011;42890;44.244;22.530;2023-05-07T14:05:35;5.55;;;2.30;;
56997;SDS011;42890;44.244;22.530;2023-05-07T14:08:01;11.57;;;2.70;;
56997;SDS011;42890;44.244;22.530;2023-05-07T14:10:29;8.98;;;2.50;;
56997;SDS011;42890;44.244;22.530;2023-05-07T14:12:56;4.50;;;2.65;;
56997;SDS011;42890;44.244;22.530;2023-05-07T14:15:22;5.78;;;2.55;;
56997;SDS011;42890;44.244;22.530;2023-05-07T14:17:49;3.97;;;2.30;;
56997;SDS011;42890;44.244;22.530;2023-05-07T14:20:15;2.78;;;2.30;;
56997;SDS011;42890;44.244;22.530;2023-05-07T14:22:41;4.43;;;2.20;;
56997;SDS011;42890;44.244;22.530;2023-05-07T14:25:07;4.15;;;1.90;;
56997;SDS011;42890;44.244;22.530;2023-05-07T14:27:34;3.60;;;2.10;;
56997;SDS011;42890;44.244;22.530;2023-05-07T14:30:00;5.18;;;1.70;;
56997;SDS011;42890;44.244;22.530;2023-05-07T14:32:27;2.45;;;1.67;;
56997;SDS011;42890;44.244;22.530;2023-05-07T14:34:53;2.63;;;1.63;;
56997;SDS011;42890;44.244;22.530;2023-05-07T14:37:19;5.47;;;1.70;;
56997;SDS011;42890;44.244;22.530;2023-05-07T14:39:45;6.03;;;1.75;;
56997;SDS011;42890;44.244;22.530;2023-05-07T14:42:11;3.53;;;1.83;;
56997;SDS011;42890;44.244;22.530;2023-05-07T14:44:38;2.95;;;1.67;;
56997;SDS011;42890;44.244;22.530;2023-05-07T14:47:06;3.67;;;1.65;;